sensor_id;sensor_type;location;lat;lon;timestamp;temperature;humidity
17795;DHT22;9021;50.882;4.326;2023-03-14T00:01:21;12.70;99.90
17795;DHT22;9021;50.882;4.326;2023-03-14T00:03:47;12.50;99.90
17795;DHT22;9021;50.882;4.326;2023-03-14T00:06:13;12.50;99.90
17795;DHT22;9021;50.882;4.326;2023-03-14T00:08:39;12.40;99.90
17795;DHT22;9021;50.882;4.326;2023-03-14T00:11:09;13.20;99.90
17795;DHT22;9021;50.882;4.326;2023-03-14T00:13:35;12.40;99.90
17795;DHT22;9021;50.882;4.326;2023-03-14T00:16:04;12.30;99.90
17795;DHT22;9021;50.882;4.326;2023-03-14T00:18:30;12.30;99.90
17795;DHT22;9021;50.882;4.326;2023-03-14T00:20:59;14.50;99.90
17795;DHT22;9021;50.882;4.326;2023-03-14T00:23:24;14.50;99.90
17795;DHT22;9021;50.882;4.326;2023-03-14T00:25:50;12.20;99.90
17795;DHT22;9021;50.882;4.326;2023-03-14T00:28:15;12.50;99.90
17795;DHT22;9021;50.882;4.326;2023-03-14T00:30:41;12.50;99.90
17795;DHT22;9021;50.882;4.326;2023-03-14T00:33:06;12.20;99.90
17795;DHT22;9021;50.882;4.326;2023-03-14T00:35:32;12.10;99.90
17795;DHT22;9021;50.882;4.326;2023-03-14T00:37:57;12.20;99.90
17795;DHT22;9021;50.882;4.326;2023-03-14T00:40:23;12.40;99.90
17795;DHT22;9021;50.882;4.326;2023-03-14T00:42:48;13.60;99.90
17795;DHT22;9021;50.882;4.326;2023-03-14T00:45:14;12.20;99.90
17795;DHT22;9021;50.882;4.326;2023-03-14T00:47:39;12.10;99.90
17795;DHT22;9021;50.882;4.326;2023-03-14T00:50:05;13.50;99.90
17795;DHT22;9021;50.882;4.326;2023-03-14T00:52:31;12.00;99.90
17795;DHT22;9021;50.882;4.326;2023-03-14T00:54:57;12.30;99.90
17795;DHT22;9021;50.882;4.326;2023-03-14T00:57:22;12.00;99.90
17795;DHT22;9021;50.882;4.326;2023-03-14T00:59:48;11.90;99.90
17795;DHT22;9021;50.882;4.326;2023-03-14T01:02:13;13.30;99.90
17795;DHT22;9021;50.882;4.326;2023-03-14T01:04:39;12.00;99.90
17795;DHT22;9021;50.882;4.326;2023-03-14T01:07:05;12.00;99.90
17795;DHT22;9021;50.882;4.326;2023-03-14T01:09:30;12.00;99.90
17795;DHT22;9021;50.882;4.326;2023-03-14T01:11:56;11.90;99.90
17795;DHT22;9021;50.882;4.326;2023-03-14T01:14:21;12.00;99.90
17795;DHT22;9021;50.882;4.326;2023-03-14T01:16:47;13.30;99.90
17795;DHT22;9021;50.882;4.326;2023-03-14T01:19:12;10.40;99.90
17795;DHT22;9021;50.882;4.326;2023-03-14T01:21:38;12.00;99.90
17795;DHT22;9021;50.882;4.326;2023-03-14T01:24:04;11.90;99.90
17795;DHT22;9021;50.882;4.326;2023-03-14T01:26:30;11.90;99.90
17795;DHT22;9021;50.882;4.326;2023-03-14T01:28:56;11.90;99.90
17795;DHT22;9021;50.882;4.326;2023-03-14T01:31:22;13.40;99.90
17795;DHT22;9021;50.882;4.326;2023-03-14T01:33:48;11.80;99.90
17795;DHT22;9021;50.882;4.326;2023-03-14T01:36:14;11.80;99.90
17795;DHT22;9021;50.882;4.326;2023-03-14T01:38:39;11.70;99.90
17795;DHT22;9021;50.882;4.326;2023-03-14T01:41:05;11.50;99.90
17795;DHT22;9021;50.882;4.326;2023-03-14T01:43:31;11.80;99.90
17795;DHT22;9021;50.882;4.326;2023-03-14T01:46:12;12.80;99.90
17795;DHT22;9021;50.882;4.326;2023-03-14T01:53:49;11.70;99.90
17795;DHT22;9021;50.882;4.326;2023-03-14T01:56:16;12.50;99.90
17795;DHT22;9021;50.882;4.326;2023-03-14T01:58:43;11.70;99.90
17795;DHT22;9021;50.882;4.326;2023-03-14T02:01:10;12.40;99.90
17795;DHT22;9021;50.882;4.326;2023-03-14T02:03:38;11.70;99.90
17795;DHT22;9021;50.882;4.326;2023-03-14T02:06:06;11.70;99.90
17795;DHT22;9021;50.882;4.326;2023-03-14T02:08:32;11.60;99.90
17795;DHT22;9021;50.882;4.326;2023-03-14T02:10:58;12.20;99.90
17795;DHT22;9021;50.882;4.326;2023-03-14T02:13:24;12.10;99.90
17795;DHT22;9021;50.882;4.326;2023-03-14T02:15:49;11.50;99.90
17795;DHT22;9021;50.882;4.326;2023-03-14T02:18:15;12.40;99.90
17795;DHT22;9021;50.882;4.326;2023-03-14T02:20:45;11.70;99.90
17795;DHT22;9021;50.882;4.326;2023-03-14T02:23:13;12.00;99.90
17795;DHT22;9021;50.882;4.326;2023-03-14T02:28:09;11.40;99.90
17795;DHT22;9021;50.882;4.326;2023-03-14T02:30:34;11.80;99.90
17795;DHT22;9021;50.882;4.326;2023-03-14T02:33:01;11.90;99.90
17795;DHT22;9021;50.882;4.326;2023-03-14T02:35:29;12.80;99.90
17795;DHT22;9021;50.882;4.326;2023-03-14T02:37:59;12.90;99.90
17795;DHT22;9021;50.882;4.326;2023-03-14T02:40:26;12.00;99.90
17795;DHT22;9021;50.882;4.326;2023-03-14T02:42:51;11.20;99.90
17795;DHT22;9021;50.882;4.326;2023-03-14T02:47:43;12.50;99.90
17795;DHT22;9021;50.882;4.326;2023-03-14T02:50:10;12.00;99.90
17795;DHT22;9021;50.882;4.326;2023-03-14T02:52:36;11.40;99.90
17795;DHT22;9021;50.882;4.326;2023-03-14T02:55:02;11.60;99.90
17795;DHT22;9021;50.882;4.326;2023-03-14T02:57:28;11.40;99.90
17795;DHT22;9021;50.882;4.326;2023-03-14T02:59:57;11.40;99.90
17795;DHT22;9021;50.882;4.326;2023-03-14T03:02:23;13.50;99.90
17795;DHT22;9021;50.882;4.326;2023-03-14T03:04:48;11.20;99.90
17795;DHT22;9021;50.882;4.326;2023-03-14T03:07:14;11.30;99.90
17795;DHT22;9021;50.882;4.326;2023-03-14T03:09:39;12.10;99.90
17795;DHT22;9021;50.882;4.326;2023-03-14T03:12:05;11.20;99.90
17795;DHT22;9021;50.882;4.326;2023-03-14T03:14:30;11.10;99.90
17795;DHT22;9021;50.882;4.326;2023-03-14T03:16:56;11.60;99.90
17795;DHT22;9021;50.882;4.326;2023-03-14T03:19:21;11.20;99.90
17795;DHT22;9021;50.882;4.326;2023-03-14T03:21:49;11.30;99.90
17795;DHT22;9021;50.882;4.326;2023-03-14T03:24:15;11.70;99.90
17795;DHT22;9021;50.882;4.326;2023-03-14T03:26:40;11.50;99.90
17795;DHT22;9021;50.882;4.326;2023-03-14T03:29:06;12.80;99.90
17795;DHT22;9021;50.882;4.326;2023-03-14T03:31:31;11.90;99.90
17795;DHT22;9021;50.882;4.326;2023-03-14T03:33:57;12.90;99.90
17795;DHT22;9021;50.882;4.326;2023-03-14T03:36:23;11.50;99.90
17795;DHT22;9021;50.882;4.326;2023-03-14T03:38:48;12.40;99.90
17795;DHT22;9021;50.882;4.326;2023-03-14T03:41:14;11.40;99.90
17795;DHT22;9021;50.882;4.326;2023-03-14T03:43:40;11.30;99.90
17795;DHT22;9021;50.882;4.326;2023-03-14T03:46:06;11.40;99.90
17795;DHT22;9021;50.882;4.326;2023-03-14T03:48:31;11.40;99.90
17795;DHT22;9021;50.882;4.326;2023-03-14T03:50:57;11.40;99.90
17795;DHT22;9021;50.882;4.326;2023-03-14T03:53:22;11.20;99.90
17795;DHT22;9021;50.882;4.326;2023-03-14T03:55:48;12.50;99.90
17795;DHT22;9021;50.882;4.326;2023-03-14T03:58:13;12.50;99.90
17795;DHT22;9021;50.882;4.326;2023-03-14T04:00:39;11.30;99.90
17795;DHT22;9021;50.882;4.326;2023-03-14T04:03:05;11.40;99.90
17795;DHT22;9021;50.882;4.326;2023-03-14T04:05:31;11.50;99.90
17795;DHT22;9021;50.882;4.326;2023-03-14T04:07:56;11.40;99.90
17795;DHT22;9021;50.882;4.326;2023-03-14T04:10:22;12.30;99.90
17795;DHT22;9021;50.882;4.326;2023-03-14T04:12:47;11.80;99.90
17795;DHT22;9021;50.882;4.326;2023-03-14T04:15:13;12.60;99.90
17795;DHT22;9021;50.882;4.326;2023-03-14T04:17:39;11.90;99.90
17795;DHT22;9021;50.882;4.326;2023-03-14T04:20:04;11.50;99.90
17795;DHT22;9021;50.882;4.326;2023-03-14T04:22:30;11.50;99.90
17795;DHT22;9021;50.882;4.326;2023-03-14T04:24:56;11.50;99.90
17795;DHT22;9021;50.882;4.326;2023-03-14T04:27:21;11.40;99.90
17795;DHT22;9021;50.882;4.326;2023-03-14T04:29:47;11.90;99.90
17795;DHT22;9021;50.882;4.326;2023-03-14T04:32:12;11.40;99.90
17795;DHT22;9021;50.882;4.326;2023-03-14T04:34:38;11.40;99.90
17795;DHT22;9021;50.882;4.326;2023-03-14T04:37:03;11.30;99.90
17795;DHT22;9021;50.882;4.326;2023-03-14T04:39:29;11.50;99.90
17795;DHT22;9021;50.882;4.326;2023-03-14T04:41:54;11.70;99.90
17795;DHT22;9021;50.882;4.326;2023-03-14T04:44:20;11.40;99.90
17795;DHT22;9021;50.882;4.326;2023-03-14T04:46:45;11.90;99.90
17795;DHT22;9021;50.882;4.326;2023-03-14T04:49:11;12.10;99.90
17795;DHT22;9021;50.882;4.326;2023-03-14T04:51:36;11.50;99.90
17795;DHT22;9021;50.882;4.326;2023-03-14T04:54:02;12.60;99.90
17795;DHT22;9021;50.882;4.326;2023-03-14T04:56:27;11.50;99.90
17795;DHT22;9021;50.882;4.326;2023-03-14T04:58:53;12.30;99.90
17795;DHT22;9021;50.882;4.326;2023-03-14T05:01:19;11.40;99.90
17795;DHT22;9021;50.882;4.326;2023-03-14T05:03:44;13.50;99.90
17795;DHT22;9021;50.882;4.326;2023-03-14T05:06:10;11.30;99.90
17795;DHT22;9021;50.882;4.326;2023-03-14T05:08:35;11.30;99.90
17795;DHT22;9021;50.882;4.326;2023-03-14T05:11:01;11.70;99.90
17795;DHT22;9021;50.882;4.326;2023-03-14T05:13:26;12.80;99.90
17795;DHT22;9021;50.882;4.326;2023-03-14T05:15:52;11.70;99.90
17795;DHT22;9021;50.882;4.326;2023-03-14T05:18:17;11.40;99.90
17795;DHT22;9021;50.882;4.326;2023-03-14T05:20:43;11.60;99.90
17795;DHT22;9021;50.882;4.326;2023-03-14T05:23:09;11.40;99.90
17795;DHT22;9021;50.882;4.326;2023-03-14T05:25:34;11.50;99.90
17795;DHT22;9021;50.882;4.326;2023-03-14T05:28:00;12.20;99.90
17795;DHT22;9021;50.882;4.326;2023-03-14T05:30:26;11.50;99.90
17795;DHT22;9021;50.882;4.326;2023-03-14T05:32:53;11.60;99.90
17795;DHT22;9021;50.882;4.326;2023-03-14T05:35:19;11.50;99.90
17795;DHT22;9021;50.882;4.326;2023-03-14T05:37:44;13.20;99.90
17795;DHT22;9021;50.882;4.326;2023-03-14T05:40:10;11.60;99.90
17795;DHT22;9021;50.882;4.326;2023-03-14T05:42:36;11.60;99.90
17795;DHT22;9021;50.882;4.326;2023-03-14T05:45:01;12.10;99.90
17795;DHT22;9021;50.882;4.326;2023-03-14T05:47:27;13.20;99.90
17795;DHT22;9021;50.882;4.326;2023-03-14T05:49:52;11.80;99.90
17795;DHT22;9021;50.882;4.326;2023-03-14T05:52:18;11.70;99.90
17795;DHT22;9021;50.882;4.326;2023-03-14T05:54:43;12.70;99.90
17795;DHT22;9021;50.882;4.326;2023-03-14T05:57:09;11.80;99.90
17795;DHT22;9021;50.882;4.326;2023-03-14T05:59:35;13.00;99.90
17795;DHT22;9021;50.882;4.326;2023-03-14T06:02:00;12.90;99.90
17795;DHT22;9021;50.882;4.326;2023-03-14T06:04:26;11.70;99.90
17795;DHT22;9021;50.882;4.326;2023-03-14T06:06:51;12.90;99.90
17795;DHT22;9021;50.882;4.326;2023-03-14T06:09:16;11.70;99.90
17795;DHT22;9021;50.882;4.326;2023-03-14T06:11:45;13.10;99.90
17795;DHT22;9021;50.882;4.326;2023-03-14T06:14:11;11.80;99.90
17795;DHT22;9021;50.882;4.326;2023-03-14T06:16:37;12.60;99.90
17795;DHT22;9021;50.882;4.326;2023-03-14T06:19:02;12.20;99.90
17795;DHT22;9021;50.882;4.326;2023-03-14T06:21:28;13.10;99.90
17795;DHT22;9021;50.882;4.326;2023-03-14T06:23:53;13.20;99.90
17795;DHT22;9021;50.882;4.326;2023-03-14T06:26:19;12.30;99.90
17795;DHT22;9021;50.882;4.326;2023-03-14T06:28:44;13.00;99.90
17795;DHT22;9021;50.882;4.326;2023-03-14T06:31:10;11.50;99.90
17795;DHT22;9021;50.882;4.326;2023-03-14T06:33:35;13.80;99.90
17795;DHT22;9021;50.882;4.326;2023-03-14T06:36:01;11.60;99.90
17795;DHT22;9021;50.882;4.326;2023-03-14T06:38:26;11.70;99.90
17795;DHT22;9021;50.882;4.326;2023-03-14T06:40:52;11.80;99.90
17795;DHT22;9021;50.882;4.326;2023-03-14T06:43:17;11.70;99.90
17795;DHT22;9021;50.882;4.326;2023-03-14T06:45:43;12.10;99.90
17795;DHT22;9021;50.882;4.326;2023-03-14T06:48:17;12.40;99.90
17795;DHT22;9021;50.882;4.326;2023-03-14T06:50:47;11.10;99.90
17795;DHT22;9021;50.882;4.326;2023-03-14T06:53:13;11.30;99.90
17795;DHT22;9021;50.882;4.326;2023-03-14T06:55:38;11.90;99.90
17795;DHT22;9021;50.882;4.326;2023-03-14T06:58:04;13.00;99.90
17795;DHT22;9021;50.882;4.326;2023-03-14T07:00:30;11.20;99.90
17795;DHT22;9021;50.882;4.326;2023-03-14T07:02:55;10.20;99.90
17795;DHT22;9021;50.882;4.326;2023-03-14T07:05:21;10.20;99.90
17795;DHT22;9021;50.882;4.326;2023-03-14T07:07:46;11.10;99.90
17795;DHT22;9021;50.882;4.326;2023-03-14T07:10:12;14.30;99.90
17795;DHT22;9021;50.882;4.326;2023-03-14T07:12:40;9.80;99.90
17795;DHT22;9021;50.882;4.326;2023-03-14T07:15:06;10.70;99.90
17795;DHT22;9021;50.882;4.326;2023-03-14T07:17:31;9.70;99.90
17795;DHT22;9021;50.882;4.326;2023-03-14T07:19:57;11.90;99.90
17795;DHT22;9021;50.882;4.326;2023-03-14T07:22:22;10.30;99.90
17795;DHT22;9021;50.882;4.326;2023-03-14T07:24:48;14.00;99.90
17795;DHT22;9021;50.882;4.326;2023-03-14T07:27:13;11.80;99.90
17795;DHT22;9021;50.882;4.326;2023-03-14T07:29:39;9.60;99.90
17795;DHT22;9021;50.882;4.326;2023-03-14T07:32:04;10.10;99.90
17795;DHT22;9021;50.882;4.326;2023-03-14T07:34:30;9.60;99.90
17795;DHT22;9021;50.882;4.326;2023-03-14T07:36:55;11.10;99.90
17795;DHT22;9021;50.882;4.326;2023-03-14T07:39:21;9.90;99.90
17795;DHT22;9021;50.882;4.326;2023-03-14T07:41:46;11.60;99.90
17795;DHT22;9021;50.882;4.326;2023-03-14T07:44:12;10.80;99.90
17795;DHT22;9021;50.882;4.326;2023-03-14T07:46:37;9.70;99.90
17795;DHT22;9021;50.882;4.326;2023-03-14T07:49:03;9.80;99.90
17795;DHT22;9021;50.882;4.326;2023-03-14T07:51:28;9.70;99.90
17795;DHT22;9021;50.882;4.326;2023-03-14T07:53:54;12.00;99.90
17795;DHT22;9021;50.882;4.326;2023-03-14T07:56:19;9.60;99.90
17795;DHT22;9021;50.882;4.326;2023-03-14T07:58:45;9.70;99.90
17795;DHT22;9021;50.882;4.326;2023-03-14T08:01:10;9.60;99.90
17795;DHT22;9021;50.882;4.326;2023-03-14T08:03:36;9.60;99.90
17795;DHT22;9021;50.882;4.326;2023-03-14T08:06:01;10.70;99.90
17795;DHT22;9021;50.882;4.326;2023-03-14T08:08:27;9.40;99.90
17795;DHT22;9021;50.882;4.326;2023-03-14T08:10:52;9.40;99.90
17795;DHT22;9021;50.882;4.326;2023-03-14T08:13:18;10.40;99.90
17795;DHT22;9021;50.882;4.326;2023-03-14T08:15:46;10.90;99.90
17795;DHT22;9021;50.882;4.326;2023-03-14T08:18:12;11.60;99.90
17795;DHT22;9021;50.882;4.326;2023-03-14T08:20:38;10.60;99.90
17795;DHT22;9021;50.882;4.326;2023-03-14T08:23:03;9.50;99.90
17795;DHT22;9021;50.882;4.326;2023-03-14T08:25:29;10.50;99.90
17795;DHT22;9021;50.882;4.326;2023-03-14T08:27:54;9.80;99.90
17795;DHT22;9021;50.882;4.326;2023-03-14T08:30:20;11.30;99.90
17795;DHT22;9021;50.882;4.326;2023-03-14T08:32:46;9.60;99.90
17795;DHT22;9021;50.882;4.326;2023-03-14T08:35:12;10.60;99.90
17795;DHT22;9021;50.882;4.326;2023-03-14T08:37:37;9.50;99.90
17795;DHT22;9021;50.882;4.326;2023-03-14T08:40:04;11.30;99.90
17795;DHT22;9021;50.882;4.326;2023-03-14T08:42:32;9.30;99.90
17795;DHT22;9021;50.882;4.326;2023-03-14T08:44:57;9.30;99.90
17795;DHT22;9021;50.882;4.326;2023-03-14T08:47:23;9.20;99.90
17795;DHT22;9021;50.882;4.326;2023-03-14T08:49:49;9.20;99.90
17795;DHT22;9021;50.882;4.326;2023-03-14T08:52:14;9.30;99.90
17795;DHT22;9021;50.882;4.326;2023-03-14T08:54:42;10.50;99.90
17795;DHT22;9021;50.882;4.326;2023-03-14T08:57:08;9.30;99.90
17795;DHT22;9021;50.882;4.326;2023-03-14T08:59:34;6.60;99.90
17795;DHT22;9021;50.882;4.326;2023-03-14T09:01:59;9.10;99.90
17795;DHT22;9021;50.882;4.326;2023-03-14T09:04:29;8.90;99.90
17795;DHT22;9021;50.882;4.326;2023-03-14T09:06:54;11.80;99.90
17795;DHT22;9021;50.882;4.326;2023-03-14T09:09:20;9.10;99.90
17795;DHT22;9021;50.882;4.326;2023-03-14T09:11:47;10.70;99.90
17795;DHT22;9021;50.882;4.326;2023-03-14T09:14:13;8.60;99.90
17795;DHT22;9021;50.882;4.326;2023-03-14T09:16:39;11.10;99.90
17795;DHT22;9021;50.882;4.326;2023-03-14T09:19:04;8.40;99.90
17795;DHT22;9021;50.882;4.326;2023-03-14T09:21:30;8.60;99.90
17795;DHT22;9021;50.882;4.326;2023-03-14T09:23:56;10.70;99.90
17795;DHT22;9021;50.882;4.326;2023-03-14T09:26:21;11.30;99.90
17795;DHT22;9021;50.882;4.326;2023-03-14T09:28:47;8.60;99.90
17795;DHT22;9021;50.882;4.326;2023-03-14T09:31:14;10.20;99.90
17795;DHT22;9021;50.882;4.326;2023-03-14T09:33:39;10.30;99.90
17795;DHT22;9021;50.882;4.326;2023-03-14T09:36:06;11.00;99.90
17795;DHT22;9021;50.882;4.326;2023-03-14T09:38:33;8.90;99.90
17795;DHT22;9021;50.882;4.326;2023-03-14T09:40:59;10.80;99.90
17795;DHT22;9021;50.882;4.326;2023-03-14T09:43:26;8.80;99.90
17795;DHT22;9021;50.882;4.326;2023-03-14T09:45:53;8.50;99.90
17795;DHT22;9021;50.882;4.326;2023-03-14T09:48:20;9.10;99.90
17795;DHT22;9021;50.882;4.326;2023-03-14T09:50:50;8.60;99.90
17795;DHT22;9021;50.882;4.326;2023-03-14T09:53:20;9.00;99.90
17795;DHT22;9021;50.882;4.326;2023-03-14T09:55:47;8.90;99.90
17795;DHT22;9021;50.882;4.326;2023-03-14T09:58:14;10.30;99.90
17795;DHT22;9021;50.882;4.326;2023-03-14T10:00:41;9.10;99.90
17795;DHT22;9021;50.882;4.326;2023-03-14T10:05:39;9.00;99.90
17795;DHT22;9021;50.882;4.326;2023-03-14T10:08:04;9.60;99.90
17795;DHT22;9021;50.882;4.326;2023-03-14T10:10:30;9.20;99.90
17795;DHT22;9021;50.882;4.326;2023-03-14T10:12:56;9.10;99.90
17795;DHT22;9021;50.882;4.326;2023-03-14T10:15:25;9.40;99.90
17795;DHT22;9021;50.882;4.326;2023-03-14T10:17:51;9.30;99.90
17795;DHT22;9021;50.882;4.326;2023-03-14T10:20:28;9.40;99.90
17795;DHT22;9021;50.882;4.326;2023-03-14T10:22:58;9.20;99.90
17795;DHT22;9021;50.882;4.326;2023-03-14T10:25:33;11.40;99.90
17795;DHT22;9021;50.882;4.326;2023-03-14T10:27:59;9.20;99.90
17795;DHT22;9021;50.882;4.326;2023-03-14T10:33:10;8.90;99.90
17795;DHT22;9021;50.882;4.326;2023-03-14T10:35:36;9.00;99.90
17795;DHT22;9021;50.882;4.326;2023-03-14T10:38:02;8.90;99.90
17795;DHT22;9021;50.882;4.326;2023-03-14T10:40:28;11.30;99.90
17795;DHT22;9021;50.882;4.326;2023-03-14T10:42:55;9.00;99.90
17795;DHT22;9021;50.882;4.326;2023-03-14T10:47:56;8.80;99.90
17795;DHT22;9021;50.882;4.326;2023-03-14T10:50:24;9.50;99.90
17795;DHT22;9021;50.882;4.326;2023-03-14T10:52:51;8.70;99.90
17795;DHT22;9021;50.882;4.326;2023-03-14T10:55:17;9.90;99.90
17795;DHT22;9021;50.882;4.326;2023-03-14T10:57:43;10.30;99.90
17795;DHT22;9021;50.882;4.326;2023-03-14T11:00:18;10.60;99.90
17795;DHT22;9021;50.882;4.326;2023-03-14T11:07:47;9.00;99.90
17795;DHT22;9021;50.882;4.326;2023-03-14T11:20:17;8.90;99.90
17795;DHT22;9021;50.882;4.326;2023-03-14T11:22:50;10.00;99.90
17795;DHT22;9021;50.882;4.326;2023-03-14T11:28:08;8.40;99.90
17795;DHT22;9021;50.882;4.326;2023-03-14T11:30:39;8.40;99.90
17795;DHT22;9021;50.882;4.326;2023-03-14T11:35:43;8.30;99.90
17795;DHT22;9021;50.882;4.326;2023-03-14T11:40:36;7.80;99.90
17795;DHT22;9021;50.882;4.326;2023-03-14T11:45:33;8.10;99.90
17795;DHT22;9021;50.882;4.326;2023-03-14T11:50:40;8.10;99.90
17795;DHT22;9021;50.882;4.326;2023-03-14T11:53:18;9.40;99.90
17795;DHT22;9021;50.882;4.326;2023-03-14T11:55:46;7.90;99.90
17795;DHT22;9021;50.882;4.326;2023-03-14T11:58:14;10.00;99.90
17795;DHT22;9021;50.882;4.326;2023-03-14T12:00:41;8.00;99.90
17795;DHT22;9021;50.882;4.326;2023-03-14T12:10:48;8.40;99.90
17795;DHT22;9021;50.882;4.326;2023-03-14T12:13:15;8.60;99.90
17795;DHT22;9021;50.882;4.326;2023-03-14T12:15:47;10.70;99.90
17795;DHT22;9021;50.882;4.326;2023-03-14T12:18:21;9.40;99.90
17795;DHT22;9021;50.882;4.326;2023-03-14T12:20:57;8.50;99.90
17795;DHT22;9021;50.882;4.326;2023-03-14T12:23:23;8.50;99.90
17795;DHT22;9021;50.882;4.326;2023-03-14T12:26:06;8.60;99.90
17795;DHT22;9021;50.882;4.326;2023-03-14T12:28:31;8.50;99.90
17795;DHT22;9021;50.882;4.326;2023-03-14T12:30:57;8.90;99.90
17795;DHT22;9021;50.882;4.326;2023-03-14T12:34:00;10.00;99.90
17795;DHT22;9021;50.882;4.326;2023-03-14T12:41:52;8.50;99.90
17795;DHT22;9021;50.882;4.326;2023-03-14T12:47:40;8.50;99.90
17795;DHT22;9021;50.882;4.326;2023-03-14T12:50:00;8.30;99.90
17795;DHT22;9021;50.882;4.326;2023-03-14T12:55:24;8.50;99.90
17795;DHT22;9021;50.882;4.326;2023-03-14T12:57:57;8.50;99.90
17795;DHT22;9021;50.882;4.326;2023-03-14T13:00:23;8.60;99.90
17795;DHT22;9021;50.882;4.326;2023-03-14T13:02:55;8.70;99.90
17795;DHT22;9021;50.882;4.326;2023-03-14T13:05:26;10.00;99.90
17795;DHT22;9021;50.882;4.326;2023-03-14T13:10:26;8.80;99.90
17795;DHT22;9021;50.882;4.326;2023-03-14T13:15:24;8.80;99.90
17795;DHT22;9021;50.882;4.326;2023-03-14T13:17:51;8.80;99.90
17795;DHT22;9021;50.882;4.326;2023-03-14T13:20:37;8.80;99.90
17795;DHT22;9021;50.882;4.326;2023-03-14T13:23:03;8.50;99.90
17795;DHT22;9021;50.882;4.326;2023-03-14T13:25:29;11.30;99.90
17795;DHT22;9021;50.882;4.326;2023-03-14T13:27:55;8.30;99.90
17795;DHT22;9021;50.882;4.326;2023-03-14T13:30:22;8.30;99.90
17795;DHT22;9021;50.882;4.326;2023-03-14T13:32:48;8.40;99.90
17795;DHT22;9021;50.882;4.326;2023-03-14T13:35:22;10.80;99.90
17795;DHT22;9021;50.882;4.326;2023-03-14T13:37:51;8.90;99.90
17795;DHT22;9021;50.882;4.326;2023-03-14T13:40:23;9.80;99.90
17795;DHT22;9021;50.882;4.326;2023-03-14T13:42:49;8.60;99.90
17795;DHT22;9021;50.882;4.326;2023-03-14T13:45:15;11.10;99.90
17795;DHT22;9021;50.882;4.326;2023-03-14T13:47:40;8.70;99.90
17795;DHT22;9021;50.882;4.326;2023-03-14T13:50:12;8.60;99.90
17795;DHT22;9021;50.882;4.326;2023-03-14T13:52:38;8.90;99.90
17795;DHT22;9021;50.882;4.326;2023-03-14T13:55:04;11.00;99.90
17795;DHT22;9021;50.882;4.326;2023-03-14T13:57:46;9.10;99.90
17795;DHT22;9021;50.882;4.326;2023-03-14T14:00:19;9.40;99.90
17795;DHT22;9021;50.882;4.326;2023-03-14T14:02:45;9.30;99.90
17795;DHT22;9021;50.882;4.326;2023-03-14T14:05:11;9.30;99.90
17795;DHT22;9021;50.882;4.326;2023-03-14T14:07:37;12.00;99.90
17795;DHT22;9021;50.882;4.326;2023-03-14T14:10:03;9.60;99.90
17795;DHT22;9021;50.882;4.326;2023-03-14T14:12:36;10.00;99.90
17795;DHT22;9021;50.882;4.326;2023-03-14T14:15:07;10.00;99.90
17795;DHT22;9021;50.882;4.326;2023-03-14T14:17:43;10.00;99.90
17795;DHT22;9021;50.882;4.326;2023-03-14T14:20:15;10.00;99.90
17795;DHT22;9021;50.882;4.326;2023-03-14T14:22:43;10.00;99.90
17795;DHT22;9021;50.882;4.326;2023-03-14T14:25:12;10.00;99.90
17795;DHT22;9021;50.882;4.326;2023-03-14T14:27:39;9.70;99.90
17795;DHT22;9021;50.882;4.326;2023-03-14T14:30:21;9.80;99.90
17795;DHT22;9021;50.882;4.326;2023-03-14T14:32:50;9.80;99.90
17795;DHT22;9021;50.882;4.326;2023-03-14T14:35:25;10.30;99.90
17795;DHT22;9021;50.882;4.326;2023-03-14T14:37:51;9.50;99.90
17795;DHT22;9021;50.882;4.326;2023-03-14T14:42:42;9.10;99.90
17795;DHT22;9021;50.882;4.326;2023-03-14T14:45:12;10.40;99.90
17795;DHT22;9021;50.882;4.326;2023-03-14T14:47:47;8.60;99.90
17795;DHT22;9021;50.882;4.326;2023-03-14T14:50:30;8.30;99.90
17795;DHT22;9021;50.882;4.326;2023-03-14T14:53:00;8.00;99.90
17795;DHT22;9021;50.882;4.326;2023-03-14T14:55:31;7.90;99.90
17795;DHT22;9021;50.882;4.326;2023-03-14T14:57:57;8.00;99.90
17795;DHT22;9021;50.882;4.326;2023-03-14T15:00:24;7.90;99.90
17795;DHT22;9021;50.882;4.326;2023-03-14T15:02:51;7.80;99.90
17795;DHT22;9021;50.882;4.326;2023-03-14T15:05:18;10.40;99.90
17795;DHT22;9021;50.882;4.326;2023-03-14T15:07:44;7.80;99.90
17795;DHT22;9021;50.882;4.326;2023-03-14T15:10:10;10.40;99.90
17795;DHT22;9021;50.882;4.326;2023-03-14T15:12:36;8.10;99.90
17795;DHT22;9021;50.882;4.326;2023-03-14T15:15:02;8.20;99.90
17795;DHT22;9021;50.882;4.326;2023-03-14T15:17:27;8.50;99.90
17795;DHT22;9021;50.882;4.326;2023-03-14T15:19:53;8.50;99.90
17795;DHT22;9021;50.882;4.326;2023-03-14T15:22:20;8.40;99.90
17795;DHT22;9021;50.882;4.326;2023-03-14T15:24:46;8.60;99.90
17795;DHT22;9021;50.882;4.326;2023-03-14T15:27:12;9.80;99.90
17795;DHT22;9021;50.882;4.326;2023-03-14T15:29:38;8.80;99.90
17795;DHT22;9021;50.882;4.326;2023-03-14T15:32:03;10.00;99.90
17795;DHT22;9021;50.882;4.326;2023-03-14T15:34:29;8.90;99.90
17795;DHT22;9021;50.882;4.326;2023-03-14T15:36:55;9.00;99.90
17795;DHT22;9021;50.882;4.326;2023-03-14T15:39:20;10.40;99.90
17795;DHT22;9021;50.882;4.326;2023-03-14T15:41:46;9.60;99.90
17795;DHT22;9021;50.882;4.326;2023-03-14T15:44:11;9.70;99.90
17795;DHT22;9021;50.882;4.326;2023-03-14T15:46:37;9.90;99.90
17795;DHT22;9021;50.882;4.326;2023-03-14T15:49:02;11.00;99.90
17795;DHT22;9021;50.882;4.326;2023-03-14T15:51:28;10.00;99.60
17795;DHT22;9021;50.882;4.326;2023-03-14T15:53:53;9.20;99.80
17795;DHT22;9021;50.882;4.326;2023-03-14T15:56:20;10.80;99.20
17795;DHT22;9021;50.882;4.326;2023-03-14T15:58:49;10.30;99.90
17795;DHT22;9021;50.882;4.326;2023-03-14T16:01:16;11.30;99.90
17795;DHT22;9021;50.882;4.326;2023-03-14T16:03:42;10.10;99.90
17795;DHT22;9021;50.882;4.326;2023-03-14T16:06:09;10.80;99.90
17795;DHT22;9021;50.882;4.326;2023-03-14T16:08:34;9.00;99.90
17795;DHT22;9021;50.882;4.326;2023-03-14T16:11:00;8.80;99.90
17795;DHT22;9021;50.882;4.326;2023-03-14T16:13:26;10.10;99.90
17795;DHT22;9021;50.882;4.326;2023-03-14T16:16:02;11.30;99.90
17795;DHT22;9021;50.882;4.326;2023-03-14T16:18:29;10.70;99.90
17795;DHT22;9021;50.882;4.326;2023-03-14T16:20:59;8.90;99.70
17795;DHT22;9021;50.882;4.326;2023-03-14T16:23:24;8.90;99.90
17795;DHT22;9021;50.882;4.326;2023-03-14T16:25:51;8.70;99.90
17795;DHT22;9021;50.882;4.326;2023-03-14T16:28:16;9.90;99.90
17795;DHT22;9021;50.882;4.326;2023-03-14T16:30:42;12.10;99.90
17795;DHT22;9021;50.882;4.326;2023-03-14T16:33:08;8.50;99.90
17795;DHT22;9021;50.882;4.326;2023-03-14T16:35:37;8.80;99.90
17795;DHT22;9021;50.882;4.326;2023-03-14T16:38:03;8.80;99.90
17795;DHT22;9021;50.882;4.326;2023-03-14T16:40:29;8.70;99.90
17795;DHT22;9021;50.882;4.326;2023-03-14T16:42:54;8.70;99.90
17795;DHT22;9021;50.882;4.326;2023-03-14T16:45:20;8.80;99.90
17795;DHT22;9021;50.882;4.326;2023-03-14T16:47:45;8.80;99.90
17795;DHT22;9021;50.882;4.326;2023-03-14T16:50:11;8.80;99.90
17795;DHT22;9021;50.882;4.326;2023-03-14T16:52:37;8.40;99.90
17795;DHT22;9021;50.882;4.326;2023-03-14T16:55:02;9.10;99.90
17795;DHT22;9021;50.882;4.326;2023-03-14T16:57:29;8.90;99.90
17795;DHT22;9021;50.882;4.326;2023-03-14T16:59:54;8.80;99.90
17795;DHT22;9021;50.882;4.326;2023-03-14T17:02:20;8.70;99.90